sensor_id;sensor_type;location;lat;lon;timestamp;pressure;altitude;pressure_sealevel;temperature;humidity
48041;BME280;33815;48.386;11.738;2022-08-19T00:00:14;95987.63;;;17.41;100.00
48041;BME280;33815;48.386;11.738;2022-08-19T00:02:41;96004.31;;;17.67;100.00
48041;BME280;33815;48.386;11.738;2022-08-19T00:05:08;95992.63;;;17.49;100.00
48041;BME280;33815;48.386;11.738;2022-08-19T00:07:34;96005.97;;;17.61;100.00
48041;BME280;33815;48.386;11.738;2022-08-19T00:09:59;96010.69;;;17.52;100.00
48041;BME280;33815;48.386;11.738;2022-08-19T00:12:25;96026.63;;;17.71;100.00
48041;BME280;33815;48.386;11.738;2022-08-19T00:14:50;96017.94;;;17.63;100.00
48041;BME280;33815;48.386;11.738;2022-08-19T00:17:15;96031.53;;;17.60;100.00
48041;BME280;33815;48.386;11.738;2022-08-19T00:19:41;96027.63;;;17.63;100.00
48041;BME280;33815;48.386;11.738;2022-08-19T00:22:06;96025.41;;;17.67;100.00
48041;BME280;33815;48.386;11.738;2022-08-19T00:24:34;96021.16;;;17.59;100.00
48041;BME280;33815;48.386;11.738;2022-08-19T00:27:00;96021.59;;;17.56;100.00
48041;BME280;33815;48.386;11.738;2022-08-19T00:29:27;96029.06;;;17.66;100.00
48041;BME280;33815;48.386;11.738;2022-08-19T00:31:53;96021.34;;;17.71;100.00
48041;BME280;33815;48.386;11.738;2022-08-19T00:34:20;96006.19;;;17.59;100.00
48041;BME280;33815;48.386;11.738;2022-08-19T00:36:47;95994.44;;;17.62;100.00
48041;BME280;33815;48.386;11.738;2022-08-19T00:39:14;95979.75;;;17.73;100.00
48041;BME280;33815;48.386;11.738;2022-08-19T00:41:41;95983.25;;;17.67;100.00
48041;BME280;33815;48.386;11.738;2022-08-19T00:44:25;95978.78;;;17.67;100.00
48041;BME280;33815;48.386;11.738;2022-08-19T00:46:52;95989.94;;;17.62;100.00
48041;BME280;33815;48.386;11.738;2022-08-19T00:52:17;95975.34;;;17.67;100.00
48041;BME280;33815;48.386;11.738;2022-08-19T00:54:44;95984.66;;;17.69;100.00
48041;BME280;33815;48.386;11.738;2022-08-19T00:57:12;95967.47;;;17.60;100.00
48041;BME280;33815;48.386;11.738;2022-08-19T00:59:42;95967.47;;;17.60;100.00
48041;BME280;33815;48.386;11.738;2022-08-19T01:02:08;95969.88;;;17.61;100.00
48041;BME280;33815;48.386;11.738;2022-08-19T01:04:33;95960.53;;;17.66;100.00
48041;BME280;33815;48.386;11.738;2022-08-19T01:06:59;95962.56;;;17.70;100.00
48041;BME280;33815;48.386;11.738;2022-08-19T01:09:26;95948.00;;;17.61;100.00
48041;BME280;33815;48.386;11.738;2022-08-19T01:11:51;95988.31;;;17.68;100.00
48041;BME280;33815;48.386;11.738;2022-08-19T01:14:18;95993.78;;;17.67;100.00
48041;BME280;33815;48.386;11.738;2022-08-19T01:16:45;95997.44;;;17.66;100.00
48041;BME280;33815;48.386;11.738;2022-08-19T01:19:24;95983.47;;;17.58;100.00
48041;BME280;33815;48.386;11.738;2022-08-19T01:22:10;95975.78;;;17.63;100.00
48041;BME280;33815;48.386;11.738;2022-08-19T01:24:37;95974.72;;;17.64;100.00
48041;BME280;33815;48.386;11.738;2022-08-19T01:27:06;95973.13;;;17.63;100.00
48041;BME280;33815;48.386;11.738;2022-08-19T01:29:32;95992.16;;;17.66;100.00
48041;BME280;33815;48.386;11.738;2022-08-19T01:31:58;95979.00;;;17.59;100.00
48041;BME280;33815;48.386;11.738;2022-08-19T01:34:24;96004.53;;;17.65;100.00
48041;BME280;33815;48.386;11.738;2022-08-19T01:36:49;95997.28;;;17.60;100.00
48041;BME280;33815;48.386;11.738;2022-08-19T01:39:21;95992.22;;;17.52;100.00
48041;BME280;33815;48.386;11.738;2022-08-19T01:41:47;95998.06;;;17.68;100.00
48041;BME280;33815;48.386;11.738;2022-08-19T01:44:13;95993.81;;;17.53;100.00
48041;BME280;33815;48.386;11.738;2022-08-19T01:46:39;95993.66;;;17.55;100.00
48041;BME280;33815;48.386;11.738;2022-08-19T01:49:05;95994.66;;;17.54;100.00
48041;BME280;33815;48.386;11.738;2022-08-19T01:51:31;95991.78;;;17.62;100.00
48041;BME280;33815;48.386;11.738;2022-08-19T01:53:57;95991.81;;;17.55;100.00
48041;BME280;33815;48.386;11.738;2022-08-19T01:56:24;95990.59;;;17.51;100.00
48041;BME280;33815;48.386;11.738;2022-08-19T01:59:01;96001.50;;;17.61;100.00
48041;BME280;33815;48.386;11.738;2022-08-19T02:01:26;96013.66;;;17.62;100.00
48041;BME280;33815;48.386;11.738;2022-08-19T02:03:51;96014.69;;;17.61;100.00
48041;BME280;33815;48.386;11.738;2022-08-19T02:06:19;96031.69;;;17.66;100.00
48041;BME280;33815;48.386;11.738;2022-08-19T02:08:44;96034.13;;;17.67;100.00
48041;BME280;33815;48.386;11.738;2022-08-19T02:11:23;96025.81;;;17.70;100.00
48041;BME280;33815;48.386;11.738;2022-08-19T02:13:52;96007.81;;;17.60;100.00
48041;BME280;33815;48.386;11.738;2022-08-19T02:16:18;95999.69;;;17.62;100.00
48041;BME280;33815;48.386;11.738;2022-08-19T02:18:45;95996.44;;;17.60;100.00
48041;BME280;33815;48.386;11.738;2022-08-19T02:21:11;96001.56;;;17.55;100.00
48041;BME280;33815;48.386;11.738;2022-08-19T02:23:36;95993.03;;;17.46;100.00
48041;BME280;33815;48.386;11.738;2022-08-19T02:26:01;96010.84;;;17.57;100.00
48041;BME280;33815;48.386;11.738;2022-08-19T02:28:27;96015.31;;;17.57;100.00
48041;BME280;33815;48.386;11.738;2022-08-19T02:30:52;96021.00;;;17.60;100.00
48041;BME280;33815;48.386;11.738;2022-08-19T02:33:17;96016.72;;;17.59;100.00
48041;BME280;33815;48.386;11.738;2022-08-19T02:35:44;96022.59;;;17.61;100.00
48041;BME280;33815;48.386;11.738;2022-08-19T02:38:10;96032.31;;;17.61;100.00
48041;BME280;33815;48.386;11.738;2022-08-19T02:40:56;96035.38;;;17.58;100.00
48041;BME280;33815;48.386;11.738;2022-08-19T02:43:22;96034.31;;;17.66;100.00
48041;BME280;33815;48.386;11.738;2022-08-19T02:45:48;96031.91;;;17.57;100.00
48041;BME280;33815;48.386;11.738;2022-08-19T02:48:22;96041.25;;;17.60;100.00
48041;BME280;33815;48.386;11.738;2022-08-19T02:50:49;96032.53;;;17.59;100.00
48041;BME280;33815;48.386;11.738;2022-08-19T02:53:21;96027.06;;;17.61;100.00
48041;BME280;33815;48.386;11.738;2022-08-19T02:55:48;95998.91;;;17.55;100.00
48041;BME280;33815;48.386;11.738;2022-08-19T02:58:14;96009.63;;;17.53;100.00
48041;BME280;33815;48.386;11.738;2022-08-19T03:00:45;96004.97;;;17.55;100.00
48041;BME280;33815;48.386;11.738;2022-08-19T03:03:11;95990.00;;;17.49;100.00
48041;BME280;33815;48.386;11.738;2022-08-19T03:05:36;95998.09;;;17.54;100.00
48041;BME280;33815;48.386;11.738;2022-08-19T03:08:02;95987.53;;;17.54;100.00
48041;BME280;33815;48.386;11.738;2022-08-19T03:10:29;95983.28;;;17.60;100.00
48041;BME280;33815;48.386;11.738;2022-08-19T03:12:54;95994.63;;;17.60;100.00
48041;BME280;33815;48.386;11.738;2022-08-19T03:15:19;95988.75;;;17.58;100.00
48041;BME280;33815;48.386;11.738;2022-08-19T03:17:45;95993.38;;;17.63;100.00
48041;BME280;33815;48.386;11.738;2022-08-19T03:20:10;95993.00;;;17.66;100.00
48041;BME280;33815;48.386;11.738;2022-08-19T03:22:36;95987.09;;;17.64;100.00
48041;BME280;33815;48.386;11.738;2022-08-19T03:25:01;95998.06;;;17.68;100.00
48041;BME280;33815;48.386;11.738;2022-08-19T03:27:26;96004.31;;;17.67;100.00
48041;BME280;33815;48.386;11.738;2022-08-19T03:29:52;96010.03;;;17.63;100.00
48041;BME280;33815;48.386;11.738;2022-08-19T03:32:17;96014.22;;;17.71;100.00
48041;BME280;33815;48.386;11.738;2022-08-19T03:34:42;96015.28;;;17.63;100.00
48041;BME280;33815;48.386;11.738;2022-08-19T03:37:10;95971.41;;;17.37;100.00
48041;BME280;33815;48.386;11.738;2022-08-19T03:39:38;96016.81;;;17.85;100.00
48041;BME280;33815;48.386;11.738;2022-08-19T03:42:04;96008.19;;;17.64;100.00
48041;BME280;33815;48.386;11.738;2022-08-19T03:44:30;96013.25;;;17.66;100.00
48041;BME280;33815;48.386;11.738;2022-08-19T03:46:58;96014.88;;;17.67;100.00
48041;BME280;33815;48.386;11.738;2022-08-19T03:49:27;96008.81;;;17.66;100.00
48041;BME280;33815;48.386;11.738;2022-08-19T03:51:54;96007.19;;;17.65;100.00
48041;BME280;33815;48.386;11.738;2022-08-19T03:54:21;96011.84;;;17.63;100.00
48041;BME280;33815;48.386;11.738;2022-08-19T03:56:48;96023.78;;;17.72;100.00
48041;BME280;33815;48.386;11.738;2022-08-19T03:59:18;96009.47;;;17.55;100.00
48041;BME280;33815;48.386;11.738;2022-08-19T04:01:44;96004.19;;;17.48;100.00
48041;BME280;33815;48.386;11.738;2022-08-19T04:04:09;96020.38;;;17.58;100.00
48041;BME280;33815;48.386;11.738;2022-08-19T04:06:36;96019.34;;;17.66;100.00
48041;BME280;33815;48.386;11.738;2022-08-19T04:09:04;96001.94;;;17.58;100.00
48041;BME280;33815;48.386;11.738;2022-08-19T04:11:36;96014.50;;;17.56;100.00
48041;BME280;33815;48.386;11.738;2022-08-19T04:14:06;96024.00;;;17.64;100.00
48041;BME280;33815;48.386;11.738;2022-08-19T04:16:32;96011.88;;;17.56;100.00
48041;BME280;33815;48.386;11.738;2022-08-19T04:19:00;95996.66;;;17.58;100.00
48041;BME280;33815;48.386;11.738;2022-08-19T04:21:27;95999.66;;;17.69;100.00
48041;BME280;33815;48.386;11.738;2022-08-19T04:23:53;96004.97;;;17.55;100.00
48041;BME280;33815;48.386;11.738;2022-08-19T04:26:22;96009.19;;;17.63;100.00
48041;BME280;33815;48.386;11.738;2022-08-19T04:28:47;96012.44;;;17.72;100.00
48041;BME280;33815;48.386;11.738;2022-08-19T04:31:18;96015.72;;;17.60;100.00
48041;BME280;33815;48.386;11.738;2022-08-19T04:33:44;96008.00;;;17.59;100.00
48041;BME280;33815;48.386;11.738;2022-08-19T04:36:26;96006.19;;;17.59;100.00
48041;BME280;33815;48.386;11.738;2022-08-19T04:38:58;96014.06;;;17.66;100.00
48041;BME280;33815;48.386;11.738;2022-08-19T04:41:24;96021.34;;;17.71;100.00
48041;BME280;33815;48.386;11.738;2022-08-19T04:44:08;96025.19;;;17.68;100.00
48041;BME280;33815;48.386;11.738;2022-08-19T04:46:34;96033.09;;;17.68;100.00
48041;BME280;33815;48.386;11.738;2022-08-19T04:49:01;96032.25;;;17.74;100.00
48041;BME280;33815;48.386;11.738;2022-08-19T04:51:27;96034.66;;;17.83;100.00
48041;BME280;33815;48.386;11.738;2022-08-19T04:53:53;96040.34;;;17.79;100.00
48041;BME280;33815;48.386;11.738;2022-08-19T04:56:20;96042.00;;;17.74;100.00
48041;BME280;33815;48.386;11.738;2022-08-19T04:58:49;96038.81;;;17.65;100.00
48041;BME280;33815;48.386;11.738;2022-08-19T05:01:23;96028.28;;;17.58;100.00
48041;BME280;33815;48.386;11.738;2022-08-19T05:03:49;96046.47;;;17.73;100.00
48041;BME280;33815;48.386;11.738;2022-08-19T05:06:16;96056.38;;;17.78;100.00
48041;BME280;33815;48.386;11.738;2022-08-19T05:08:42;96040.22;;;17.68;100.00
48041;BME280;33815;48.386;11.738;2022-08-19T05:11:29;96051.13;;;17.78;100.00
48041;BME280;33815;48.386;11.738;2022-08-19T05:13:56;96061.00;;;17.96;100.00
48041;BME280;33815;48.386;11.738;2022-08-19T05:16:23;96062.44;;;17.98;100.00
48041;BME280;33815;48.386;11.738;2022-08-19T05:18:49;96059.00;;;17.91;100.00
48041;BME280;33815;48.386;11.738;2022-08-19T05:21:34;96063.06;;;17.87;100.00
48041;BME280;33815;48.386;11.738;2022-08-19T05:24:18;96074.38;;;18.01;100.00
48041;BME280;33815;48.386;11.738;2022-08-19T05:26:47;96061.22;;;17.94;100.00
48041;BME280;33815;48.386;11.738;2022-08-19T05:29:14;96072.53;;;18.02;100.00
48041;BME280;33815;48.386;11.738;2022-08-19T05:31:40;96073.13;;;18.04;100.00
48041;BME280;33815;48.386;11.738;2022-08-19T05:34:06;96069.69;;;18.10;100.00
48041;BME280;33815;48.386;11.738;2022-08-19T05:36:37;96076.31;;;18.19;100.00
48041;BME280;33815;48.386;11.738;2022-08-19T05:39:06;96072.28;;;18.17;100.00
48041;BME280;33815;48.386;11.738;2022-08-19T05:41:31;96073.84;;;18.24;100.00
48041;BME280;33815;48.386;11.738;2022-08-19T05:43:57;96068.22;;;18.21;100.00
48041;BME280;33815;48.386;11.738;2022-08-19T05:46:23;96058.47;;;18.21;100.00
48041;BME280;33815;48.386;11.738;2022-08-19T05:48:48;96053.44;;;18.13;100.00
48041;BME280;33815;48.386;11.738;2022-08-19T05:51:14;96066.63;;;18.13;100.00
48041;BME280;33815;48.386;11.738;2022-08-19T05:53:41;96049.19;;;18.05;100.00
48041;BME280;33815;48.386;11.738;2022-08-19T05:56:09;96056.09;;;18.06;100.00
48041;BME280;33815;48.386;11.738;2022-08-19T05:58:36;96058.94;;;18.05;100.00
48041;BME280;33815;48.386;11.738;2022-08-19T06:01:02;96056.50;;;18.10;100.00
48041;BME280;33815;48.386;11.738;2022-08-19T06:03:32;96041.94;;;17.94;100.00
48041;BME280;33815;48.386;11.738;2022-08-19T06:05:57;96048.03;;;18.01;100.00
48041;BME280;33815;48.386;11.738;2022-08-19T06:08:24;96044.72;;;18.12;100.00
48041;BME280;33815;48.386;11.738;2022-08-19T06:10:50;96055.88;;;18.08;100.00
48041;BME280;33815;48.386;11.738;2022-08-19T06:13:15;96052.47;;;18.01;100.00
48041;BME280;33815;48.386;11.738;2022-08-19T06:15:40;96048.84;;;17.95;100.00
48041;BME280;33815;48.386;11.738;2022-08-19T06:18:08;96053.91;;;17.96;100.00
48041;BME280;33815;48.386;11.738;2022-08-19T06:20:34;96063.44;;;17.97;100.00
48041;BME280;33815;48.386;11.738;2022-08-19T06:22:59;96058.97;;;17.98;100.00
48041;BME280;33815;48.386;11.738;2022-08-19T06:25:24;96067.84;;;18.04;100.00
48041;BME280;33815;48.386;11.738;2022-08-19T06:27:50;96068.25;;;18.14;100.00
48041;BME280;33815;48.386;11.738;2022-08-19T06:30:15;96083.22;;;18.20;100.00
48041;BME280;33815;48.386;11.738;2022-08-19T06:32:41;96077.50;;;18.23;100.00
48041;BME280;33815;48.386;11.738;2022-08-19T06:35:07;96081.63;;;18.12;100.00
48041;BME280;33815;48.386;11.738;2022-08-19T06:37:32;96089.75;;;18.11;100.00
48041;BME280;33815;48.386;11.738;2022-08-19T06:39:58;96076.81;;;18.03;100.00
48041;BME280;33815;48.386;11.738;2022-08-19T06:42:23;96080.88;;;17.98;100.00
48041;BME280;33815;48.386;11.738;2022-08-19T06:44:48;96066.09;;;17.91;100.00
48041;BME280;33815;48.386;11.738;2022-08-19T06:47:17;96071.94;;;18.00;100.00
48041;BME280;33815;48.386;11.738;2022-08-19T06:49:42;96069.72;;;17.96;100.00
48041;BME280;33815;48.386;11.738;2022-08-19T06:52:08;96064.66;;;17.95;100.00
48041;BME280;33815;48.386;11.738;2022-08-19T06:54:36;96064.06;;;17.86;100.00
48041;BME280;33815;48.386;11.738;2022-08-19T06:57:01;96071.78;;;17.81;100.00
48041;BME280;33815;48.386;11.738;2022-08-19T06:59:28;96072.63;;;17.68;100.00
48041;BME280;33815;48.386;11.738;2022-08-19T07:01:56;96061.31;;;17.61;100.00
48041;BME280;33815;48.386;11.738;2022-08-19T07:04:28;96078.31;;;17.65;100.00
48041;BME280;33815;48.386;11.738;2022-08-19T07:07:10;96073.06;;;17.65;100.00
48041;BME280;33815;48.386;11.738;2022-08-19T07:09:39;96074.28;;;17.62;100.00
48041;BME280;33815;48.386;11.738;2022-08-19T07:12:06;96069.66;;;17.51;100.00
48041;BME280;33815;48.386;11.738;2022-08-19T07:14:33;96076.53;;;17.52;100.00
48041;BME280;33815;48.386;11.738;2022-08-19T07:17:03;96072.88;;;17.53;100.00
48041;BME280;33815;48.386;11.738;2022-08-19T07:19:29;96068.81;;;17.57;100.00
48041;BME280;33815;48.386;11.738;2022-08-19T07:21:55;96071.06;;;17.60;100.00
48041;BME280;33815;48.386;11.738;2022-08-19T07:24:23;96073.25;;;17.63;100.00
48041;BME280;33815;48.386;11.738;2022-08-19T07:26:49;96046.53;;;17.53;100.00
48041;BME280;33815;48.386;11.738;2022-08-19T07:29:15;96066.72;;;17.79;100.00
48041;BME280;33815;48.386;11.738;2022-08-19T07:31:41;96064.88;;;17.93;100.00
48041;BME280;33815;48.386;11.738;2022-08-19T07:34:08;96066.03;;;18.11;100.00
48041;BME280;33815;48.386;11.738;2022-08-19T07:36:38;96047.56;;;18.11;100.00
48041;BME280;33815;48.386;11.738;2022-08-19T07:39:09;96047.13;;;18.14;100.00
48041;BME280;33815;48.386;11.738;2022-08-19T07:41:36;96042.81;;;18.26;100.00
48041;BME280;33815;48.386;11.738;2022-08-19T07:44:02;96040.56;;;18.23;100.00
48041;BME280;33815;48.386;11.738;2022-08-19T07:46:30;96028.81;;;18.26;100.00
48041;BME280;33815;48.386;11.738;2022-08-19T07:48:56;96045.47;;;18.26;100.00
48041;BME280;33815;48.386;11.738;2022-08-19T07:51:21;96045.47;;;18.26;100.00
48041;BME280;33815;48.386;11.738;2022-08-19T07:53:48;96044.66;;;18.19;100.00
48041;BME280;33815;48.386;11.738;2022-08-19T07:56:16;96033.31;;;18.19;100.00
48041;BME280;33815;48.386;11.738;2022-08-19T07:58:44;96042.66;;;18.14;100.00
48041;BME280;33815;48.386;11.738;2022-08-19T08:01:14;96037.38;;;18.14;100.00
48041;BME280;33815;48.386;11.738;2022-08-19T08:03:40;96028.16;;;17.98;100.00
48041;BME280;33815;48.386;11.738;2022-08-19T08:06:24;96040.69;;;18.03;100.00
48041;BME280;33815;48.386;11.738;2022-08-19T08:09:09;96033.78;;;18.02;100.00
48041;BME280;33815;48.386;11.738;2022-08-19T08:12:03;96043.47;;;18.15;100.00
48041;BME280;33815;48.386;11.738;2022-08-19T08:14:31;96039.22;;;18.14;100.00
48041;BME280;33815;48.386;11.738;2022-08-19T08:16:57;96034.75;;;18.14;100.00
48041;BME280;33815;48.386;11.738;2022-08-19T08:19:24;96028.50;;;18.09;100.00
48041;BME280;33815;48.386;11.738;2022-08-19T08:21:50;96017.50;;;18.12;100.00
48041;BME280;33815;48.386;11.738;2022-08-19T08:24:16;96020.75;;;18.14;100.00
48041;BME280;33815;48.386;11.738;2022-08-19T08:26:42;96004.41;;;18.30;100.00
48041;BME280;33815;48.386;11.738;2022-08-19T08:29:10;96008.88;;;18.30;100.00
48041;BME280;33815;48.386;11.738;2022-08-19T08:31:36;96006.78;;;18.39;100.00
48041;BME280;33815;48.386;11.738;2022-08-19T08:34:02;96010.09;;;18.59;100.00
48041;BME280;33815;48.386;11.738;2022-08-19T08:36:27;96037.38;;;18.78;100.00
48041;BME280;33815;48.386;11.738;2022-08-19T08:38:53;96027.09;;;18.70;100.00
48041;BME280;33815;48.386;11.738;2022-08-19T08:43:54;96044.22;;;18.86;100.00
48041;BME280;33815;48.386;11.738;2022-08-19T08:46:39;96049.91;;;18.90;100.00
48041;BME280;33815;48.386;11.738;2022-08-19T08:51:46;96049.69;;;18.91;100.00
48041;BME280;33815;48.386;11.738;2022-08-19T08:54:14;96069.94;;;18.97;100.00
48041;BME280;33815;48.386;11.738;2022-08-19T08:56:44;96074.25;;;18.92;100.00
48041;BME280;33815;48.386;11.738;2022-08-19T08:59:18;96084.72;;;18.73;100.00
48041;BME280;33815;48.386;11.738;2022-08-19T09:01:45;96077.59;;;18.74;100.00
48041;BME280;33815;48.386;11.738;2022-08-19T09:04:11;96076.84;;;18.66;100.00
48041;BME280;33815;48.386;11.738;2022-08-19T09:07:10;96085.84;;;18.59;100.00
48041;BME280;33815;48.386;11.738;2022-08-19T09:09:46;96083.66;;;18.49;100.00
48041;BME280;33815;48.386;11.738;2022-08-19T09:15:12;96086.53;;;18.47;100.00
48041;BME280;33815;48.386;11.738;2022-08-19T09:17:38;96077.03;;;18.40;100.00
48041;BME280;33815;48.386;11.738;2022-08-19T09:22:40;96091.06;;;18.34;100.00
48041;BME280;33815;48.386;11.738;2022-08-19T09:25:10;96080.34;;;18.22;100.00
48041;BME280;33815;48.386;11.738;2022-08-19T09:27:37;96089.50;;;18.19;100.00
48041;BME280;33815;48.386;11.738;2022-08-19T09:30:05;96096.41;;;18.20;100.00
48041;BME280;33815;48.386;11.738;2022-08-19T09:32:30;96085.03;;;18.20;100.00
48041;BME280;33815;48.386;11.738;2022-08-19T09:34:56;96076.75;;;18.09;100.00
48041;BME280;33815;48.386;11.738;2022-08-19T09:37:23;96086.91;;;18.12;100.00
48041;BME280;33815;48.386;11.738;2022-08-19T09:39:49;96082.84;;;18.17;100.00
48041;BME280;33815;48.386;11.738;2022-08-19T09:42:14;96065.19;;;18.10;100.00
48041;BME280;33815;48.386;11.738;2022-08-19T09:44:40;96063.13;;;18.19;100.00
48041;BME280;33815;48.386;11.738;2022-08-19T09:47:07;96078.84;;;18.39;100.00
48041;BME280;33815;48.386;11.738;2022-08-19T09:49:33;96071.31;;;18.43;100.00
48041;BME280;33815;48.386;11.738;2022-08-19T09:51:59;96063.28;;;18.31;100.00
48041;BME280;33815;48.386;11.738;2022-08-19T09:54:25;96085.94;;;18.39;100.00
48041;BME280;33815;48.386;11.738;2022-08-19T09:56:51;96084.09;;;18.46;100.00
48041;BME280;33815;48.386;11.738;2022-08-19T09:59:17;96083.31;;;18.39;100.00
48041;BME280;33815;48.386;11.738;2022-08-19T10:01:42;96088.00;;;18.37;100.00
48041;BME280;33815;48.386;11.738;2022-08-19T10:04:07;96086.94;;;18.44;100.00
48041;BME280;33815;48.386;11.738;2022-08-19T10:06:39;96083.03;;;18.54;100.00
48041;BME280;33815;48.386;11.738;2022-08-19T10:09:06;96083.81;;;18.54;100.00
48041;BME280;33815;48.386;11.738;2022-08-19T10:11:33;96084.75;;;18.66;100.00
48041;BME280;33815;48.386;11.738;2022-08-19T10:13:59;96082.94;;;18.67;100.00
48041;BME280;33815;48.386;11.738;2022-08-19T10:16:25;96087.66;;;18.58;100.00
48041;BME280;33815;48.386;11.738;2022-08-19T10:18:51;96091.19;;;18.45;100.00
48041;BME280;33815;48.386;11.738;2022-08-19T10:21:23;96095.31;;;18.35;100.00
48041;BME280;33815;48.386;11.738;2022-08-19T10:23:51;96081.06;;;18.42;100.00
48041;BME280;33815;48.386;11.738;2022-08-19T10:26:25;96091.28;;;18.64;100.00
48041;BME280;33815;48.386;11.738;2022-08-19T10:28:51;96089.78;;;18.75;100.00
48041;BME280;33815;48.386;11.738;2022-08-19T10:31:20;96095.88;;;18.75;100.00
48041;BME280;33815;48.386;11.738;2022-08-19T10:33:47;96099.44;;;18.94;100.00
48041;BME280;33815;48.386;11.738;2022-08-19T10:36:18;96104.41;;;19.09;100.00
48041;BME280;33815;48.386;11.738;2022-08-19T10:38:45;96101.28;;;19.19;100.00
48041;BME280;33815;48.386;11.738;2022-08-19T10:41:13;96091.13;;;19.16;100.00
48041;BME280;33815;48.386;11.738;2022-08-19T10:43:40;96089.25;;;19.23;100.00
48041;BME280;33815;48.386;11.738;2022-08-19T10:46:07;96087.50;;;19.10;100.00
48041;BME280;33815;48.386;11.738;2022-08-19T10:48:33;96059.41;;;19.16;100.00
48041;BME280;33815;48.386;11.738;2022-08-19T10:50:59;96074.38;;;19.66;100.00
48041;BME280;33815;48.386;11.738;2022-08-19T10:53:43;96065.53;;;20.28;100.00
48041;BME280;33815;48.386;11.738;2022-08-19T10:56:08;96060.75;;;20.79;100.00
48041;BME280;33815;48.386;11.738;2022-08-19T10:58:52;96065.19;;;21.32;100.00
48041;BME280;33815;48.386;11.738;2022-08-19T11:01:17;96075.34;;;21.59;100.00
48041;BME280;33815;48.386;11.738;2022-08-19T11:03:43;96067.34;;;21.23;100.00
48041;BME280;33815;48.386;11.738;2022-08-19T11:06:10;96073.22;;;21.02;100.00
48041;BME280;33815;48.386;11.738;2022-08-19T11:08:37;96055.34;;;20.85;100.00
48041;BME280;33815;48.386;11.738;2022-08-19T11:11:07;96065.84;;;20.80;100.00
48041;BME280;33815;48.386;11.738;2022-08-19T11:13:35;96072.16;;;20.79;100.00
48041;BME280;33815;48.386;11.738;2022-08-19T11:16:10;96059.53;;;20.93;100.00
48041;BME280;33815;48.386;11.738;2022-08-19T11:18:41;96061.84;;;21.37;100.00
48041;BME280;33815;48.386;11.738;2022-08-19T11:21:11;96063.56;;;21.55;100.00
48041;BME280;33815;48.386;11.738;2022-08-19T11:23:37;96058.09;;;21.85;100.00
48041;BME280;33815;48.386;11.738;2022-08-19T11:26:02;96063.06;;;21.82;100.00
48041;BME280;33815;48.386;11.738;2022-08-19T11:28:28;96055.59;;;22.07;100.00
48041;BME280;33815;48.386;11.738;2022-08-19T11:30:53;96059.97;;;22.14;100.00
48041;BME280;33815;48.386;11.738;2022-08-19T11:33:18;96055.84;;;22.06;100.00
48041;BME280;33815;48.386;11.738;2022-08-19T11:35:44;96058.41;;;22.30;100.00
48041;BME280;33815;48.386;11.738;2022-08-19T11:38:09;96054.28;;;21.93;100.00
48041;BME280;33815;48.386;11.738;2022-08-19T11:40:36;96054.81;;;21.95;100.00
48041;BME280;33815;48.386;11.738;2022-08-19T11:43:01;96049.28;;;21.56;100.00
48041;BME280;33815;48.386;11.738;2022-08-19T11:45:27;96052.16;;;21.43;100.00
48041;BME280;33815;48.386;11.738;2022-08-19T11:47:54;96046.06;;;21.54;100.00
48041;BME280;33815;48.386;11.738;2022-08-19T11:50:20;96047.94;;;21.94;100.00
48041;BME280;33815;48.386;11.738;2022-08-19T11:52:46;96045.13;;;22.41;97.84
48041;BME280;33815;48.386;11.738;2022-08-19T11:55:12;96052.78;;;22.55;93.89
48041;BME280;33815;48.386;11.738;2022-08-19T11:57:38;96051.53;;;22.46;93.97
48041;BME280;33815;48.386;11.738;2022-08-19T12:00:06;96042.94;;;22.55;94.69
48041;BME280;33815;48.386;11.738;2022-08-19T12:02:32;96037.50;;;22.62;94.48
48041;BME280;33815;48.386;11.738;2022-08-19T12:04:57;96036.56;;;22.68;94.93
48041;BME280;33815;48.386;11.738;2022-08-19T12:07:22;96045.28;;;22.52;93.27
48041;BME280;33815;48.386;11.738;2022-08-19T12:09:48;96041.22;;;22.32;96.59
48041;BME280;33815;48.386;11.738;2022-08-19T12:12:13;96037.25;;;22.06;98.41
48041;BME280;33815;48.386;11.738;2022-08-19T12:14:39;96024.97;;;21.88;97.74
48041;BME280;33815;48.386;11.738;2022-08-19T12:17:04;96037.03;;;21.79;100.00
48041;BME280;33815;48.386;11.738;2022-08-19T12:19:32;96044.88;;;21.73;100.00
48041;BME280;33815;48.386;11.738;2022-08-19T12:21:59;96052.94;;;21.43;100.00
48041;BME280;33815;48.386;11.738;2022-08-19T12:24:26;96035.91;;;21.03;100.00
48041;BME280;33815;48.386;11.738;2022-08-19T12:26:52;96054.22;;;20.93;100.00
48041;BME280;33815;48.386;11.738;2022-08-19T12:29:18;96039.84;;;20.59;100.00
48041;BME280;33815;48.386;11.738;2022-08-19T12:31:43;96042.50;;;20.59;100.00
48041;BME280;33815;48.386;11.738;2022-08-19T12:34:09;96039.34;;;21.04;100.00
48041;BME280;33815;48.386;11.738;2022-08-19T12:36:34;96054.81;;;21.95;100.00
48041;BME280;33815;48.386;11.738;2022-08-19T12:38:59;96046.50;;;22.32;98.16
48041;BME280;33815;48.386;11.738;2022-08-19T12:41:25;96053.53;;;22.67;96.89
48041;BME280;33815;48.386;11.738;2022-08-19T12:43:50;96044.44;;;22.80;95.50
48041;BME280;33815;48.386;11.738;2022-08-19T12:46:16;96051.72;;;23.19;89.28
48041;BME280;33815;48.386;11.738;2022-08-19T12:48:42;96056.97;;;23.02;90.32
48041;BME280;33815;48.386;11.738;2022-08-19T12:51:14;96062.03;;;22.69;93.26
48041;BME280;33815;48.386;11.738;2022-08-19T12:53:40;96052.66;;;22.79;93.17
48041;BME280;33815;48.386;11.738;2022-08-19T12:56:07;96063.75;;;22.75;93.17